sensor_id;sensor_type;location;lat;lon;timestamp;P1;durP1;ratioP1;P2;durP2;ratioP2
69714;SDS011;56981;53.532;49.398;2023-09-12T00:00:16;6.72;;;3.25;;
69714;SDS011;56981;53.532;49.398;2023-09-12T00:02:42;4.95;;;3.08;;
69714;SDS011;56981;53.532;49.398;2023-09-12T00:05:08;6.53;;;3.33;;
69714;SDS011;56981;53.532;49.398;2023-09-12T00:07:34;8.23;;;3.50;;
69714;SDS011;56981;53.532;49.398;2023-09-12T00:10:02;8.85;;;3.38;;
69714;SDS011;56981;53.532;49.398;2023-09-12T00:12:28;6.82;;;3.67;;
69714;SDS011;56981;53.532;49.398;2023-09-12T00:14:54;5.57;;;3.15;;
69714;SDS011;56981;53.532;49.398;2023-09-12T00:17:20;4.38;;;3.40;;
69714;SDS011;56981;53.532;49.398;2023-09-12T00:19:46;6.75;;;3.42;;
69714;SDS011;56981;53.532;49.398;2023-09-12T00:22:12;7.47;;;3.50;;
69714;SDS011;56981;53.532;49.398;2023-09-12T00:24:38;6.15;;;3.40;;
69714;SDS011;56981;53.532;49.398;2023-09-12T00:27:04;9.60;;;3.50;;
69714;SDS011;56981;53.532;49.398;2023-09-12T00:29:31;7.15;;;3.92;;
69714;SDS011;56981;53.532;49.398;2023-09-12T00:31:57;9.68;;;3.72;;
69714;SDS011;56981;53.532;49.398;2023-09-12T00:34:24;6.30;;;3.95;;
69714;SDS011;56981;53.532;49.398;2023-09-12T00:36:50;8.35;;;3.97;;
69714;SDS011;56981;53.532;49.398;2023-09-12T00:39:16;12.05;;;3.90;;
69714;SDS011;56981;53.532;49.398;2023-09-12T00:41:42;6.13;;;3.35;;
69714;SDS011;56981;53.532;49.398;2023-09-12T00:44:09;8.32;;;3.78;;
69714;SDS011;56981;53.532;49.398;2023-09-12T00:46:35;8.50;;;3.97;;
69714;SDS011;56981;53.532;49.398;2023-09-12T00:49:04;9.02;;;4.32;;
69714;SDS011;56981;53.532;49.398;2023-09-12T00:51:32;6.03;;;3.55;;
69714;SDS011;56981;53.532;49.398;2023-09-12T00:54:00;7.72;;;4.05;;
69714;SDS011;56981;53.532;49.398;2023-09-12T00:56:26;5.95;;;3.50;;
69714;SDS011;56981;53.532;49.398;2023-09-12T00:58:53;6.95;;;3.92;;
69714;SDS011;56981;53.532;49.398;2023-09-12T01:01:19;9.43;;;4.03;;
69714;SDS011;56981;53.532;49.398;2023-09-12T01:03:46;8.88;;;3.95;;
69714;SDS011;56981;53.532;49.398;2023-09-12T01:06:12;10.25;;;4.18;;
69714;SDS011;56981;53.532;49.398;2023-09-12T01:08:40;7.22;;;3.58;;
69714;SDS011;56981;53.532;49.398;2023-09-12T01:11:06;5.60;;;3.67;;
69714;SDS011;56981;53.532;49.398;2023-09-12T01:13:33;6.82;;;4.03;;
69714;SDS011;56981;53.532;49.398;2023-09-12T01:15:59;7.85;;;3.85;;
69714;SDS011;56981;53.532;49.398;2023-09-12T01:18:25;8.43;;;4.15;;
69714;SDS011;56981;53.532;49.398;2023-09-12T01:23:54;6.57;;;3.83;;
69714;SDS011;56981;53.532;49.398;2023-09-12T01:29:10;9.40;;;3.90;;
69714;SDS011;56981;53.532;49.398;2023-09-12T01:31:38;14.38;;;4.65;;
69714;SDS011;56981;53.532;49.398;2023-09-12T01:34:11;13.23;;;4.05;;
69714;SDS011;56981;53.532;49.398;2023-09-12T01:36:38;8.93;;;4.43;;
69714;SDS011;56981;53.532;49.398;2023-09-12T01:39:04;7.93;;;3.83;;
69714;SDS011;56981;53.532;49.398;2023-09-12T01:41:31;15.52;;;4.75;;
69714;SDS011;56981;53.532;49.398;2023-09-12T01:44:01;13.45;;;4.90;;
69714;SDS011;56981;53.532;49.398;2023-09-12T01:46:28;11.18;;;4.93;;
69714;SDS011;56981;53.532;49.398;2023-09-12T01:48:56;8.25;;;4.70;;
69714;SDS011;56981;53.532;49.398;2023-09-12T01:51:24;12.40;;;5.03;;
69714;SDS011;56981;53.532;49.398;2023-09-12T01:53:51;12.65;;;4.28;;
69714;SDS011;56981;53.532;49.398;2023-09-12T01:56:20;12.38;;;3.97;;
69714;SDS011;56981;53.532;49.398;2023-09-12T01:58:46;16.30;;;4.43;;
69714;SDS011;56981;53.532;49.398;2023-09-12T02:01:12;10.88;;;4.38;;
69714;SDS011;56981;53.532;49.398;2023-09-12T02:03:39;10.30;;;4.13;;
69714;SDS011;56981;53.532;49.398;2023-09-12T02:06:05;11.88;;;4.40;;
69714;SDS011;56981;53.532;49.398;2023-09-12T02:08:32;11.95;;;4.63;;
69714;SDS011;56981;53.532;49.398;2023-09-12T02:10:59;11.07;;;5.32;;
69714;SDS011;56981;53.532;49.398;2023-09-12T02:13:25;13.77;;;4.57;;
69714;SDS011;56981;53.532;49.398;2023-09-12T02:15:58;6.97;;;4.18;;
69714;SDS011;56981;53.532;49.398;2023-09-12T02:18:24;6.32;;;3.85;;
69714;SDS011;56981;53.532;49.398;2023-09-12T02:20:50;7.07;;;3.85;;
69714;SDS011;56981;53.532;49.398;2023-09-12T02:23:16;12.15;;;4.60;;
69714;SDS011;56981;53.532;49.398;2023-09-12T02:25:42;8.32;;;5.13;;
69714;SDS011;56981;53.532;49.398;2023-09-12T02:28:08;7.65;;;4.10;;
69714;SDS011;56981;53.532;49.398;2023-09-12T02:30:37;7.88;;;4.07;;
69714;SDS011;56981;53.532;49.398;2023-09-12T02:33:05;5.28;;;3.92;;
69714;SDS011;56981;53.532;49.398;2023-09-12T02:35:31;6.90;;;4.30;;
69714;SDS011;56981;53.532;49.398;2023-09-12T02:37:57;5.55;;;3.58;;
69714;SDS011;56981;53.532;49.398;2023-09-12T02:40:24;8.10;;;4.38;;
69714;SDS011;56981;53.532;49.398;2023-09-12T02:42:50;7.30;;;4.25;;
69714;SDS011;56981;53.532;49.398;2023-09-12T02:45:16;6.45;;;4.47;;
69714;SDS011;56981;53.532;49.398;2023-09-12T02:47:42;7.40;;;4.82;;
69714;SDS011;56981;53.532;49.398;2023-09-12T02:50:09;11.73;;;5.65;;
69714;SDS011;56981;53.532;49.398;2023-09-12T02:52:35;8.55;;;5.57;;
69714;SDS011;56981;53.532;49.398;2023-09-12T02:55:01;6.53;;;4.50;;
69714;SDS011;56981;53.532;49.398;2023-09-12T02:57:27;7.97;;;5.50;;
69714;SDS011;56981;53.532;49.398;2023-09-12T02:59:53;12.23;;;5.43;;
69714;SDS011;56981;53.532;49.398;2023-09-12T03:02:19;7.50;;;4.75;;
69714;SDS011;56981;53.532;49.398;2023-09-12T03:04:45;7.20;;;4.45;;
69714;SDS011;56981;53.532;49.398;2023-09-12T03:07:12;6.20;;;4.35;;
69714;SDS011;56981;53.532;49.398;2023-09-12T03:09:38;9.77;;;6.10;;
69714;SDS011;56981;53.532;49.398;2023-09-12T03:12:04;7.32;;;4.63;;
69714;SDS011;56981;53.532;49.398;2023-09-12T03:14:30;6.95;;;4.07;;
69714;SDS011;56981;53.532;49.398;2023-09-12T03:16:57;6.88;;;4.57;;
69714;SDS011;56981;53.532;49.398;2023-09-12T03:19:22;8.23;;;4.25;;
69714;SDS011;56981;53.532;49.398;2023-09-12T03:21:48;8.38;;;4.95;;
69714;SDS011;56981;53.532;49.398;2023-09-12T03:24:14;9.50;;;4.72;;
69714;SDS011;56981;53.532;49.398;2023-09-12T03:26:43;9.23;;;4.05;;
69714;SDS011;56981;53.532;49.398;2023-09-12T03:29:09;8.15;;;4.50;;
69714;SDS011;56981;53.532;49.398;2023-09-12T03:31:35;8.35;;;3.95;;
69714;SDS011;56981;53.532;49.398;2023-09-12T03:34:01;8.43;;;3.70;;
69714;SDS011;56981;53.532;49.398;2023-09-12T03:36:27;8.75;;;4.75;;
69714;SDS011;56981;53.532;49.398;2023-09-12T03:38:53;7.60;;;4.13;;
69714;SDS011;56981;53.532;49.398;2023-09-12T03:41:19;5.22;;;4.00;;
69714;SDS011;56981;53.532;49.398;2023-09-12T03:43:50;12.93;;;5.55;;
69714;SDS011;56981;53.532;49.398;2023-09-12T03:46:19;8.90;;;5.13;;
69714;SDS011;56981;53.532;49.398;2023-09-12T03:48:45;7.57;;;4.93;;
69714;SDS011;56981;53.532;49.398;2023-09-12T03:51:12;6.82;;;4.47;;
69714;SDS011;56981;53.532;49.398;2023-09-12T03:53:38;7.85;;;3.60;;
69714;SDS011;56981;53.532;49.398;2023-09-12T03:56:04;7.97;;;3.20;;
69714;SDS011;56981;53.532;49.398;2023-09-12T03:58:30;6.63;;;3.38;;
69714;SDS011;56981;53.532;49.398;2023-09-12T04:00:56;6.93;;;3.85;;
69714;SDS011;56981;53.532;49.398;2023-09-12T04:03:22;7.32;;;3.75;;
69714;SDS011;56981;53.532;49.398;2023-09-12T04:05:49;5.90;;;3.60;;
69714;SDS011;56981;53.532;49.398;2023-09-12T04:08:16;6.90;;;4.13;;
69714;SDS011;56981;53.532;49.398;2023-09-12T04:10:43;6.40;;;4.05;;
69714;SDS011;56981;53.532;49.398;2023-09-12T04:13:09;4.32;;;3.65;;
69714;SDS011;56981;53.532;49.398;2023-09-12T04:15:35;5.13;;;3.58;;
69714;SDS011;56981;53.532;49.398;2023-09-12T04:18:01;5.38;;;3.50;;
69714;SDS011;56981;53.532;49.398;2023-09-12T04:20:27;4.85;;;3.90;;
69714;SDS011;56981;53.532;49.398;2023-09-12T04:22:53;6.35;;;3.67;;
69714;SDS011;56981;53.532;49.398;2023-09-12T04:25:19;6.07;;;3.65;;
69714;SDS011;56981;53.532;49.398;2023-09-12T04:27:45;5.53;;;3.33;;
69714;SDS011;56981;53.532;49.398;2023-09-12T04:30:11;5.05;;;3.38;;
69714;SDS011;56981;53.532;49.398;2023-09-12T04:32:38;3.92;;;3.47;;
69714;SDS011;56981;53.532;49.398;2023-09-12T04:35:04;6.43;;;3.20;;
69714;SDS011;56981;53.532;49.398;2023-09-12T04:37:30;3.85;;;3.15;;
69714;SDS011;56981;53.532;49.398;2023-09-12T04:39:57;3.85;;;3.08;;
69714;SDS011;56981;53.532;49.398;2023-09-12T04:42:23;4.30;;;3.40;;
69714;SDS011;56981;53.532;49.398;2023-09-12T04:44:49;3.90;;;3.03;;
69714;SDS011;56981;53.532;49.398;2023-09-12T04:47:15;3.75;;;3.20;;
69714;SDS011;56981;53.532;49.398;2023-09-12T04:49:43;4.18;;;2.90;;
69714;SDS011;56981;53.532;49.398;2023-09-12T04:52:09;4.25;;;3.15;;
69714;SDS011;56981;53.532;49.398;2023-09-12T04:54:36;4.55;;;2.90;;
69714;SDS011;56981;53.532;49.398;2023-09-12T04:57:02;4.20;;;2.95;;
69714;SDS011;56981;53.532;49.398;2023-09-12T04:59:28;4.75;;;3.28;;
69714;SDS011;56981;53.532;49.398;2023-09-12T05:01:54;5.82;;;4.25;;
69714;SDS011;56981;53.532;49.398;2023-09-12T05:04:20;5.88;;;3.35;;
69714;SDS011;56981;53.532;49.398;2023-09-12T05:06:46;5.40;;;3.30;;
69714;SDS011;56981;53.532;49.398;2023-09-12T05:09:13;4.88;;;3.40;;
69714;SDS011;56981;53.532;49.398;2023-09-12T05:11:39;5.63;;;3.78;;
69714;SDS011;56981;53.532;49.398;2023-09-12T05:14:05;5.75;;;3.80;;
69714;SDS011;56981;53.532;49.398;2023-09-12T05:16:31;7.43;;;4.07;;
69714;SDS011;56981;53.532;49.398;2023-09-12T05:18:57;5.88;;;4.18;;
69714;SDS011;56981;53.532;49.398;2023-09-12T05:21:23;5.40;;;4.45;;
69714;SDS011;56981;53.532;49.398;2023-09-12T05:23:49;5.20;;;4.70;;
69714;SDS011;56981;53.532;49.398;2023-09-12T05:26:17;5.72;;;3.78;;
69714;SDS011;56981;53.532;49.398;2023-09-12T05:28:43;4.70;;;3.80;;
69714;SDS011;56981;53.532;49.398;2023-09-12T05:31:09;4.25;;;2.80;;
69714;SDS011;56981;53.532;49.398;2023-09-12T05:33:35;3.92;;;3.13;;
69714;SDS011;56981;53.532;49.398;2023-09-12T05:36:01;3.72;;;3.35;;
69714;SDS011;56981;53.532;49.398;2023-09-12T05:38:28;4.22;;;2.92;;
69714;SDS011;56981;53.532;49.398;2023-09-12T05:40:55;3.83;;;3.15;;
69714;SDS011;56981;53.532;49.398;2023-09-12T05:43:22;4.25;;;3.15;;
69714;SDS011;56981;53.532;49.398;2023-09-12T05:45:48;3.78;;;3.00;;
69714;SDS011;56981;53.532;49.398;2023-09-12T05:48:14;7.35;;;3.28;;
69714;SDS011;56981;53.532;49.398;2023-09-12T05:50:40;3.95;;;2.88;;
69714;SDS011;56981;53.532;49.398;2023-09-12T05:53:07;3.53;;;3.13;;
69714;SDS011;56981;53.532;49.398;2023-09-12T05:55:34;4.78;;;3.00;;
69714;SDS011;56981;53.532;49.398;2023-09-12T05:58:00;6.07;;;3.88;;
69714;SDS011;56981;53.532;49.398;2023-09-12T06:00:26;4.03;;;3.00;;
69714;SDS011;56981;53.532;49.398;2023-09-12T06:02:52;5.15;;;3.60;;
69714;SDS011;56981;53.532;49.398;2023-09-12T06:05:18;3.47;;;3.17;;
69714;SDS011;56981;53.532;49.398;2023-09-12T06:07:44;4.47;;;3.53;;
69714;SDS011;56981;53.532;49.398;2023-09-12T06:10:20;4.10;;;3.47;;
69714;SDS011;56981;53.532;49.398;2023-09-12T06:12:46;3.45;;;3.15;;
69714;SDS011;56981;53.532;49.398;2023-09-12T06:15:12;5.78;;;3.60;;
69714;SDS011;56981;53.532;49.398;2023-09-12T06:17:38;4.68;;;3.25;;
69714;SDS011;56981;53.532;49.398;2023-09-12T06:20:08;3.42;;;2.78;;
69714;SDS011;56981;53.532;49.398;2023-09-12T06:22:34;2.42;;;2.22;;
69714;SDS011;56981;53.532;49.398;2023-09-12T06:25:01;2.92;;;2.65;;
69714;SDS011;56981;53.532;49.398;2023-09-12T06:27:27;3.33;;;3.03;;
69714;SDS011;56981;53.532;49.398;2023-09-12T06:29:53;4.43;;;2.63;;
69714;SDS011;56981;53.532;49.398;2023-09-12T06:32:19;3.28;;;2.97;;
69714;SDS011;56981;53.532;49.398;2023-09-12T06:34:45;2.80;;;2.53;;
69714;SDS011;56981;53.532;49.398;2023-09-12T06:37:11;5.45;;;3.08;;
69714;SDS011;56981;53.532;49.398;2023-09-12T06:39:38;3.97;;;2.72;;
69714;SDS011;56981;53.532;49.398;2023-09-12T06:42:04;3.33;;;2.75;;
69714;SDS011;56981;53.532;49.398;2023-09-12T06:44:30;4.32;;;3.13;;
69714;SDS011;56981;53.532;49.398;2023-09-12T06:46:56;3.42;;;2.97;;
69714;SDS011;56981;53.532;49.398;2023-09-12T06:49:22;2.83;;;2.60;;
69714;SDS011;56981;53.532;49.398;2023-09-12T06:51:48;2.63;;;2.42;;
69714;SDS011;56981;53.532;49.398;2023-09-12T06:54:14;2.60;;;2.40;;
69714;SDS011;56981;53.532;49.398;2023-09-12T06:56:40;5.28;;;3.08;;
69714;SDS011;56981;53.532;49.398;2023-09-12T06:59:10;3.05;;;2.60;;
69714;SDS011;56981;53.532;49.398;2023-09-12T07:01:36;2.80;;;2.30;;
69714;SDS011;56981;53.532;49.398;2023-09-12T07:04:03;3.10;;;2.80;;
69714;SDS011;56981;53.532;49.398;2023-09-12T07:06:29;2.50;;;2.30;;
69714;SDS011;56981;53.532;49.398;2023-09-12T07:08:55;2.78;;;2.58;;
69714;SDS011;56981;53.532;49.398;2023-09-12T07:11:21;2.90;;;2.60;;
69714;SDS011;56981;53.532;49.398;2023-09-12T07:13:49;3.28;;;2.97;;
69714;SDS011;56981;53.532;49.398;2023-09-12T07:16:15;3.40;;;3.10;;
69714;SDS011;56981;53.532;49.398;2023-09-12T07:18:41;4.10;;;3.00;;
69714;SDS011;56981;53.532;49.398;2023-09-12T07:21:07;4.40;;;3.17;;
69714;SDS011;56981;53.532;49.398;2023-09-12T07:23:36;3.38;;;3.08;;
69714;SDS011;56981;53.532;49.398;2023-09-12T07:26:05;4.57;;;3.20;;
69714;SDS011;56981;53.532;49.398;2023-09-12T07:28:31;3.40;;;3.08;;
69714;SDS011;56981;53.532;49.398;2023-09-12T07:30:57;3.30;;;3.00;;
69714;SDS011;56981;53.532;49.398;2023-09-12T07:33:24;3.75;;;3.28;;
69714;SDS011;56981;53.532;49.398;2023-09-12T07:35:53;2.70;;;2.50;;
69714;SDS011;56981;53.532;49.398;2023-09-12T07:38:21;3.47;;;3.17;;
69714;SDS011;56981;53.532;49.398;2023-09-12T07:40:49;2.75;;;2.53;;
69714;SDS011;56981;53.532;49.398;2023-09-12T07:43:15;3.28;;;2.83;;
69714;SDS011;56981;53.532;49.398;2023-09-12T07:45:44;3.03;;;2.72;;
69714;SDS011;56981;53.532;49.398;2023-09-12T07:48:10;2.95;;;2.75;;
69714;SDS011;56981;53.532;49.398;2023-09-12T07:50:37;5.10;;;3.25;;
69714;SDS011;56981;53.532;49.398;2023-09-12T07:53:07;3.40;;;3.10;;
69714;SDS011;56981;53.532;49.398;2023-09-12T07:55:38;3.75;;;3.10;;
69714;SDS011;56981;53.532;49.398;2023-09-12T07:58:11;3.70;;;2.83;;
69714;SDS011;56981;53.532;49.398;2023-09-12T08:00:41;4.75;;;2.90;;
69714;SDS011;56981;53.532;49.398;2023-09-12T08:03:07;3.50;;;3.20;;
69714;SDS011;56981;53.532;49.398;2023-09-12T08:05:33;3.50;;;2.97;;
69714;SDS011;56981;53.532;49.398;2023-09-12T08:08:00;3.55;;;3.00;;
69714;SDS011;56981;53.532;49.398;2023-09-12T08:10:26;5.10;;;3.30;;
69714;SDS011;56981;53.532;49.398;2023-09-12T08:12:52;4.00;;;3.28;;
69714;SDS011;56981;53.532;49.398;2023-09-12T08:15:19;3.60;;;3.30;;
69714;SDS011;56981;53.532;49.398;2023-09-12T08:17:45;3.72;;;3.40;;
69714;SDS011;56981;53.532;49.398;2023-09-12T08:20:11;4.25;;;3.53;;
69714;SDS011;56981;53.532;49.398;2023-09-12T08:22:37;3.30;;;2.97;;
69714;SDS011;56981;53.532;49.398;2023-09-12T08:25:04;3.65;;;3.35;;
69714;SDS011;56981;53.532;49.398;2023-09-12T08:27:31;3.90;;;3.60;;
69714;SDS011;56981;53.532;49.398;2023-09-12T08:29:57;3.45;;;3.15;;
69714;SDS011;56981;53.532;49.398;2023-09-12T08:32:23;6.28;;;3.72;;
69714;SDS011;56981;53.532;49.398;2023-09-12T08:34:49;5.03;;;3.40;;
69714;SDS011;56981;53.532;49.398;2023-09-12T08:37:15;6.13;;;3.60;;
69714;SDS011;56981;53.532;49.398;2023-09-12T08:39:43;3.47;;;3.00;;
69714;SDS011;56981;53.532;49.398;2023-09-12T08:42:11;3.50;;;3.20;;
69714;SDS011;56981;53.532;49.398;2023-09-12T08:44:39;3.92;;;3.03;;
69714;SDS011;56981;53.532;49.398;2023-09-12T08:47:08;6.43;;;3.78;;
69714;SDS011;56981;53.532;49.398;2023-09-12T08:49:39;3.67;;;3.08;;
69714;SDS011;56981;53.532;49.398;2023-09-12T08:52:07;5.20;;;2.72;;
69714;SDS011;56981;53.532;49.398;2023-09-12T08:54:34;6.93;;;4.38;;
69714;SDS011;56981;53.532;49.398;2023-09-12T08:57:01;6.63;;;3.85;;
69714;SDS011;56981;53.532;49.398;2023-09-12T08:59:29;5.82;;;3.25;;
69714;SDS011;56981;53.532;49.398;2023-09-12T09:01:59;6.88;;;4.05;;
69714;SDS011;56981;53.532;49.398;2023-09-12T09:04:29;4.97;;;3.80;;
69714;SDS011;56981;53.532;49.398;2023-09-12T09:07:00;2.50;;;2.30;;
69714;SDS011;56981;53.532;49.398;2023-09-12T09:09:28;4.15;;;2.38;;
69714;SDS011;56981;53.532;49.398;2023-09-12T09:11:58;3.05;;;2.33;;
69714;SDS011;56981;53.532;49.398;2023-09-12T09:14:24;3.22;;;2.92;;
69714;SDS011;56981;53.532;49.398;2023-09-12T09:16:50;3.70;;;2.58;;
69714;SDS011;56981;53.532;49.398;2023-09-12T09:19:16;4.57;;;2.90;;
69714;SDS011;56981;53.532;49.398;2023-09-12T09:21:43;5.15;;;2.95;;
69714;SDS011;56981;53.532;49.398;2023-09-12T09:24:10;3.38;;;2.72;;
69714;SDS011;56981;53.532;49.398;2023-09-12T09:26:43;3.00;;;2.65;;
69714;SDS011;56981;53.532;49.398;2023-09-12T09:29:16;3.67;;;2.95;;
69714;SDS011;56981;53.532;49.398;2023-09-12T09:31:44;3.42;;;3.05;;
69714;SDS011;56981;53.532;49.398;2023-09-12T09:34:16;3.28;;;2.97;;
69714;SDS011;56981;53.532;49.398;2023-09-12T09:36:48;3.33;;;2.95;;
69714;SDS011;56981;53.532;49.398;2023-09-12T09:39:16;4.57;;;2.67;;
69714;SDS011;56981;53.532;49.398;2023-09-12T09:41:47;4.00;;;2.65;;
69714;SDS011;56981;53.532;49.398;2023-09-12T09:44:18;3.72;;;2.45;;
69714;SDS011;56981;53.532;49.398;2023-09-12T09:46:46;2.53;;;2.28;;
69714;SDS011;56981;53.532;49.398;2023-09-12T09:49:19;5.18;;;2.65;;
69714;SDS011;56981;53.532;49.398;2023-09-12T09:51:46;2.83;;;2.63;;
69714;SDS011;56981;53.532;49.398;2023-09-12T09:54:13;3.05;;;2.63;;
69714;SDS011;56981;53.532;49.398;2023-09-12T09:56:47;2.70;;;2.50;;
69714;SDS011;56981;53.532;49.398;2023-09-12T09:59:22;4.00;;;3.00;;
69714;SDS011;56981;53.532;49.398;2023-09-12T10:01:51;3.40;;;2.95;;
69714;SDS011;56981;53.532;49.398;2023-09-12T10:04:23;3.05;;;2.75;;
69714;SDS011;56981;53.532;49.398;2023-09-12T10:06:50;2.92;;;2.72;;
69714;SDS011;56981;53.532;49.398;2023-09-12T10:09:18;3.92;;;2.60;;
69714;SDS011;56981;53.532;49.398;2023-09-12T10:11:48;4.90;;;3.20;;
69714;SDS011;56981;53.532;49.398;2023-09-12T10:14:18;4.28;;;3.17;;
69714;SDS011;56981;53.532;49.398;2023-09-12T10:16:46;3.10;;;2.90;;
69714;SDS011;56981;53.532;49.398;2023-09-12T10:19:18;2.70;;;2.40;;
69714;SDS011;56981;53.532;49.398;2023-09-12T10:21:49;3.40;;;2.70;;
69714;SDS011;56981;53.532;49.398;2023-09-12T10:24:16;4.18;;;2.90;;
69714;SDS011;56981;53.532;49.398;2023-09-12T10:26:45;2.90;;;2.20;;
69714;SDS011;56981;53.532;49.398;2023-09-12T10:29:14;2.38;;;2.17;;
69714;SDS011;56981;53.532;49.398;2023-09-12T10:31:41;6.15;;;2.55;;
69714;SDS011;56981;53.532;49.398;2023-09-12T10:34:08;2.45;;;2.25;;
69714;SDS011;56981;53.532;49.398;2023-09-12T10:36:39;3.13;;;2.17;;
69714;SDS011;56981;53.532;49.398;2023-09-12T10:39:07;2.30;;;2.10;;
69714;SDS011;56981;53.532;49.398;2023-09-12T10:41:38;3.22;;;2.13;;
69714;SDS011;56981;53.532;49.398;2023-09-12T10:44:06;2.20;;;2.00;;
69714;SDS011;56981;53.532;49.398;2023-09-12T10:46:37;2.33;;;2.13;;
69714;SDS011;56981;53.532;49.398;2023-09-12T10:49:11;3.15;;;2.25;;
69714;SDS011;56981;53.532;49.398;2023-09-12T10:51:45;2.55;;;2.35;;
69714;SDS011;56981;53.532;49.398;2023-09-12T10:54:13;2.30;;;2.20;;
69714;SDS011;56981;53.532;49.398;2023-09-12T10:56:40;3.53;;;2.45;;
69714;SDS011;56981;53.532;49.398;2023-09-12T11:01:33;3.05;;;2.28;;
69714;SDS011;56981;53.532;49.398;2023-09-12T11:06:55;2.00;;;1.90;;
69714;SDS011;56981;53.532;49.398;2023-09-12T11:09:24;2.60;;;2.17;;
69714;SDS011;56981;53.532;49.398;2023-09-12T11:12:03;3.47;;;2.85;;
69714;SDS011;56981;53.532;49.398;2023-09-12T11:14:33;2.80;;;2.60;;
69714;SDS011;56981;53.532;49.398;2023-09-12T11:22:47;2.47;;;2.20;;
69714;SDS011;56981;53.532;49.398;2023-09-12T11:30:23;2.80;;;2.30;;
69714;SDS011;56981;53.532;49.398;2023-09-12T11:32:51;3.00;;;2.65;;
69714;SDS011;56981;53.532;49.398;2023-09-12T11:35:23;4.63;;;2.33;;
69714;SDS011;56981;53.532;49.398;2023-09-12T11:37:55;2.10;;;2.00;;
69714;SDS011;56981;53.532;49.398;2023-09-12T11:41:03;2.40;;;1.77;;
69714;SDS011;56981;53.532;49.398;2023-09-12T11:43:25;1.98;;;1.80;;
69714;SDS011;56981;53.532;49.398;2023-09-12T11:45:52;2.28;;;2.08;;
69714;SDS011;56981;53.532;49.398;2023-09-12T11:48:20;2.25;;;1.98;;
69714;SDS011;56981;53.532;49.398;2023-09-12T11:50:51;2.63;;;1.98;;
69714;SDS011;56981;53.532;49.398;2023-09-12T11:53:25;2.50;;;2.30;;
69714;SDS011;56981;53.532;49.398;2023-09-12T11:55:56;2.55;;;2.35;;
69714;SDS011;56981;53.532;49.398;2023-09-12T11:58:24;3.00;;;2.70;;
69714;SDS011;56981;53.532;49.398;2023-09-12T12:00:53;2.40;;;2.20;;
69714;SDS011;56981;53.532;49.398;2023-09-12T12:03:21;2.25;;;2.05;;
69714;SDS011;56981;53.532;49.398;2023-09-12T12:05:51;1.95;;;1.85;;
69714;SDS011;56981;53.532;49.398;2023-09-12T12:08:19;2.30;;;2.10;;
69714;SDS011;56981;53.532;49.398;2023-09-12T12:10:49;2.17;;;2.00;;
69714;SDS011;56981;53.532;49.398;2023-09-12T12:13:23;2.92;;;1.98;;
69714;SDS011;56981;53.532;49.398;2023-09-12T12:15:49;2.80;;;2.53;;
69714;SDS011;56981;53.532;49.398;2023-09-12T12:18:16;5.32;;;2.45;;
69714;SDS011;56981;53.532;49.398;2023-09-12T12:20:42;2.58;;;2.38;;
69714;SDS011;56981;53.532;49.398;2023-09-12T12:23:08;2.92;;;2.50;;
69714;SDS011;56981;53.532;49.398;2023-09-12T12:25:35;2.42;;;2.22;;
69714;SDS011;56981;53.532;49.398;2023-09-12T12:28:02;4.43;;;2.45;;
69714;SDS011;56981;53.532;49.398;2023-09-12T12:30:32;3.03;;;2.42;;
69714;SDS011;56981;53.532;49.398;2023-09-12T12:33:00;2.90;;;2.53;;
69714;SDS011;56981;53.532;49.398;2023-09-12T12:35:28;2.63;;;2.38;;
69714;SDS011;56981;53.532;49.398;2023-09-12T12:37:54;2.40;;;2.10;;
69714;SDS011;56981;53.532;49.398;2023-09-12T12:40:23;2.70;;;1.98;;
69714;SDS011;56981;53.532;49.398;2023-09-12T12:42:50;3.75;;;2.30;;
69714;SDS011;56981;53.532;49.398;2023-09-12T12:45:17;2.85;;;2.38;;
69714;SDS011;56981;53.532;49.398;2023-09-12T12:47:46;4.28;;;2.90;;
69714;SDS011;56981;53.532;49.398;2023-09-12T12:50:16;4.95;;;2.80;;
69714;SDS011;56981;53.532;49.398;2023-09-12T12:52:46;4.97;;;3.45;;
69714;SDS011;56981;53.532;49.398;2023-09-12T12:55:13;4.93;;;2.67;;
69714;SDS011;56981;53.532;49.398;2023-09-12T12:57:42;4.10;;;3.13;;
69714;SDS011;56981;53.532;49.398;2023-09-12T13:00:13;8.68;;;3.50;;
69714;SDS011;56981;53.532;49.398;2023-09-12T13:02:41;3.90;;;3.25;;
69714;SDS011;56981;53.532;49.398;2023-09-12T13:05:28;4.28;;;3.30;;
69714;SDS011;56981;53.532;49.398;2023-09-12T13:07:56;8.23;;;3.17;;
69714;SDS011;56981;53.532;49.398;2023-09-12T13:10:22;4.40;;;3.17;;
69714;SDS011;56981;53.532;49.398;2023-09-12T13:12:49;5.47;;;2.88;;
69714;SDS011;56981;53.532;49.398;2023-09-12T13:15:15;5.72;;;3.25;;
69714;SDS011;56981;53.532;49.398;2023-09-12T13:17:42;3.33;;;3.00;;
69714;SDS011;56981;53.532;49.398;2023-09-12T13:20:09;3.00;;;2.70;;
69714;SDS011;56981;53.532;49.398;2023-09-12T13:22:38;8.43;;;4.35;;
69714;SDS011;56981;53.532;49.398;2023-09-12T13:25:05;3.72;;;2.72;;
69714;SDS011;56981;53.532;49.398;2023-09-12T13:27:31;4.95;;;3.42;;
69714;SDS011;56981;53.532;49.398;2023-09-12T13:29:58;3.55;;;3.00;;
69714;SDS011;56981;53.532;49.398;2023-09-12T13:32:24;3.30;;;3.00;;
69714;SDS011;56981;53.532;49.398;2023-09-12T13:34:52;5.13;;;3.47;;
69714;SDS011;56981;53.532;49.398;2023-09-12T13:37:18;4.40;;;4.00;;
69714;SDS011;56981;53.532;49.398;2023-09-12T13:39:45;4.00;;;3.50;;
69714;SDS011;56981;53.532;49.398;2023-09-12T13:42:15;5.88;;;3.50;;
69714;SDS011;56981;53.532;49.398;2023-09-12T13:44:45;5.05;;;3.35;;
69714;SDS011;56981;53.532;49.398;2023-09-12T13:47:12;5.97;;;4.25;;
69714;SDS011;56981;53.532;49.398;2023-09-12T13:49:38;7.20;;;4.18;;
69714;SDS011;56981;53.532;49.398;2023-09-12T13:52:04;4.60;;;3.75;;
69714;SDS011;56981;53.532;49.398;2023-09-12T13:54:31;3.75;;;3.40;;
69714;SDS011;56981;53.532;49.398;2023-09-12T13:56:57;6.13;;;3.28;;
69714;SDS011;56981;53.532;49.398;2023-09-12T13:59:22;5.30;;;3.47;;
69714;SDS011;56981;53.532;49.398;2023-09-12T14:01:48;5.25;;;2.75;;
69714;SDS011;56981;53.532;49.398;2023-09-12T14:04:14;3.50;;;3.20;;
69714;SDS011;56981;53.532;49.398;2023-09-12T14:06:41;3.85;;;3.10;;
69714;SDS011;56981;53.532;49.398;2023-09-12T14:09:08;3.47;;;3.17;;
69714;SDS011;56981;53.532;49.398;2023-09-12T14:11:35;3.40;;;3.10;;
69714;SDS011;56981;53.532;49.398;2023-09-12T14:14:01;15.98;;;11.52;;
69714;SDS011;56981;53.532;49.398;2023-09-12T14:16:29;6.72;;;2.95;;
69714;SDS011;56981;53.532;49.398;2023-09-12T14:18:55;4.75;;;3.10;;
69714;SDS011;56981;53.532;49.398;2023-09-12T14:21:21;6.32;;;4.18;;
69714;SDS011;56981;53.532;49.398;2023-09-12T14:23:47;14.95;;;9.38;;
69714;SDS011;56981;53.532;49.398;2023-09-12T14:26:14;14.25;;;9.52;;
69714;SDS011;56981;53.532;49.398;2023-09-12T14:28:40;18.58;;;10.90;;
69714;SDS011;56981;53.532;49.398;2023-09-12T14:31:06;6.47;;;4.93;;
69714;SDS011;56981;53.532;49.398;2023-09-12T14:33:39;6.82;;;4.25;;
69714;SDS011;56981;53.532;49.398;2023-09-12T14:36:06;9.27;;;5.15;;
69714;SDS011;56981;53.532;49.398;2023-09-12T14:38:33;5.35;;;3.30;;
69714;SDS011;56981;53.532;49.398;2023-09-12T14:41:00;8.20;;;3.80;;
69714;SDS011;56981;53.532;49.398;2023-09-12T14:43:26;3.78;;;2.53;;
69714;SDS011;56981;53.532;49.398;2023-09-12T14:45:54;2.83;;;2.30;;
69714;SDS011;56981;53.532;49.398;2023-09-12T14:48:20;3.90;;;3.13;;
69714;SDS011;56981;53.532;49.398;2023-09-12T14:50:46;5.32;;;3.08;;
69714;SDS011;56981;53.532;49.398;2023-09-12T14:53:15;3.90;;;3.03;;
69714;SDS011;56981;53.532;49.398;2023-09-12T14:55:41;4.15;;;2.60;;